sensor_id;sensor_type;location;lat;lon;timestamp;P1;durP1;ratioP1;P2;durP2;ratioP2
18883;SDS011;9574;47.282;9.640;2024-01-27T10:58:22;4.60;;;2.50;;
18883;SDS011;9574;47.282;9.640;2024-01-27T11:00:50;4.73;;;2.70;;
18883;SDS011;9574;47.282;9.640;2024-01-27T11:03:18;4.90;;;2.37;;
18883;SDS011;9574;47.282;9.640;2024-01-27T11:05:47;2.87;;;2.27;;
18883;SDS011;9574;47.282;9.640;2024-01-27T11:08:15;4.10;;;2.63;;
18883;SDS011;9574;47.282;9.640;2024-01-27T11:10:44;6.17;;;2.63;;
18883;SDS011;9574;47.282;9.640;2024-01-27T11:13:11;4.80;;;2.40;;
18883;SDS011;9574;47.282;9.640;2024-01-27T11:15:43;5.03;;;2.33;;
18883;SDS011;9574;47.282;9.640;2024-01-27T11:18:17;3.17;;;2.20;;
18883;SDS011;9574;47.282;9.640;2024-01-27T11:20:45;3.43;;;2.23;;
18883;SDS011;9574;47.282;9.640;2024-01-27T11:23:12;4.10;;;2.10;;
18883;SDS011;9574;47.282;9.640;2024-01-27T11:25:41;2.37;;;2.17;;
18883;SDS011;9574;47.282;9.640;2024-01-27T11:28:12;4.37;;;2.13;;
18883;SDS011;9574;47.282;9.640;2024-01-27T11:30:44;4.63;;;2.00;;
18883;SDS011;9574;47.282;9.640;2024-01-27T11:33:12;2.23;;;2.10;;
18883;SDS011;9574;47.282;9.640;2024-01-27T11:35:40;2.40;;;2.03;;
18883;SDS011;9574;47.282;9.640;2024-01-27T11:38:07;2.90;;;2.40;;
18883;SDS011;9574;47.282;9.640;2024-01-27T11:40:44;2.40;;;2.00;;
18883;SDS011;9574;47.282;9.640;2024-01-27T11:43:11;4.13;;;1.90;;
18883;SDS011;9574;47.282;9.640;2024-01-27T11:45:39;2.60;;;1.63;;
18883;SDS011;9574;47.282;9.640;2024-01-27T11:48:07;1.57;;;1.43;;
18883;SDS011;9574;47.282;9.640;2024-01-27T11:50:34;2.90;;;1.70;;
18883;SDS011;9574;47.282;9.640;2024-01-27T11:53:02;3.67;;;3.27;;
18883;SDS011;9574;47.282;9.640;2024-01-27T11:55:32;2.40;;;2.20;;
18883;SDS011;9574;47.282;9.640;2024-01-27T11:57:59;3.97;;;2.20;;
18883;SDS011;9574;47.282;9.640;2024-01-27T12:00:26;4.07;;;2.20;;
18883;SDS011;9574;47.282;9.640;2024-01-27T12:02:53;5.00;;;2.70;;
18883;SDS011;9574;47.282;9.640;2024-01-27T12:05:21;3.90;;;2.00;;
18883;SDS011;9574;47.282;9.640;2024-01-27T12:07:49;20.83;;;6.97;;
18883;SDS011;9574;47.282;9.640;2024-01-27T12:10:16;11.53;;;4.37;;
18883;SDS011;9574;47.282;9.640;2024-01-27T12:12:45;10.60;;;3.27;;
18883;SDS011;9574;47.282;9.640;2024-01-27T12:15:12;5.50;;;2.37;;
18883;SDS011;9574;47.282;9.640;2024-01-27T12:17:40;3.10;;;2.13;;
18883;SDS011;9574;47.282;9.640;2024-01-27T12:20:13;7.70;;;2.40;;
18883;SDS011;9574;47.282;9.640;2024-01-27T12:22:43;2.67;;;1.70;;
18883;SDS011;9574;47.282;9.640;2024-01-27T12:25:11;8.77;;;3.30;;
18883;SDS011;9574;47.282;9.640;2024-01-27T12:27:39;2.67;;;1.90;;
18883;SDS011;9574;47.282;9.640;2024-01-27T12:30:06;2.43;;;1.97;;
18883;SDS011;9574;47.282;9.640;2024-01-27T12:32:34;1.80;;;1.70;;
18883;SDS011;9574;47.282;9.640;2024-01-27T12:35:04;1.90;;;1.70;;
18883;SDS011;9574;47.282;9.640;2024-01-27T12:37:31;1.87;;;1.50;;
18883;SDS011;9574;47.282;9.640;2024-01-27T12:40:00;3.40;;;1.70;;
18883;SDS011;9574;47.282;9.640;2024-01-27T12:42:27;2.13;;;1.43;;
18883;SDS011;9574;47.282;9.640;2024-01-27T12:44:54;4.13;;;1.70;;
18883;SDS011;9574;47.282;9.640;2024-01-27T12:47:21;1.40;;;1.30;;
18883;SDS011;9574;47.282;9.640;2024-01-27T12:49:48;1.33;;;1.20;;
18883;SDS011;9574;47.282;9.640;2024-01-27T12:52:15;1.73;;;1.50;;
18883;SDS011;9574;47.282;9.640;2024-01-27T12:54:42;1.43;;;1.33;;
18883;SDS011;9574;47.282;9.640;2024-01-27T12:57:10;1.80;;;1.57;;
18883;SDS011;9574;47.282;9.640;2024-01-27T12:59:38;1.73;;;1.47;;
18883;SDS011;9574;47.282;9.640;2024-01-27T13:02:05;3.33;;;1.80;;
18883;SDS011;9574;47.282;9.640;2024-01-27T13:04:33;3.37;;;1.80;;
18883;SDS011;9574;47.282;9.640;2024-01-27T13:07:00;2.17;;;1.70;;
18883;SDS011;9574;47.282;9.640;2024-01-27T13:09:27;3.20;;;1.53;;
18883;SDS011;9574;47.282;9.640;2024-01-27T13:11:54;1.83;;;1.67;;
18883;SDS011;9574;47.282;9.640;2024-01-27T13:14:22;4.00;;;2.10;;
18883;SDS011;9574;47.282;9.640;2024-01-27T13:16:49;2.37;;;1.80;;
18883;SDS011;9574;47.282;9.640;2024-01-27T13:19:18;2.10;;;1.90;;
18883;SDS011;9574;47.282;9.640;2024-01-27T13:21:45;2.97;;;1.80;;
18883;SDS011;9574;47.282;9.640;2024-01-27T13:24:12;1.80;;;1.70;;
18883;SDS011;9574;47.282;9.640;2024-01-27T13:26:39;3.30;;;1.77;;
18883;SDS011;9574;47.282;9.640;2024-01-27T13:29:06;2.07;;;1.87;;
18883;SDS011;9574;47.282;9.640;2024-01-27T13:31:35;4.13;;;2.13;;
18883;SDS011;9574;47.282;9.640;2024-01-27T13:34:02;1.97;;;1.70;;
18883;SDS011;9574;47.282;9.640;2024-01-27T13:36:30;2.37;;;1.90;;
18883;SDS011;9574;47.282;9.640;2024-01-27T13:38:58;2.30;;;1.90;;
18883;SDS011;9574;47.282;9.640;2024-01-27T13:41:26;2.10;;;1.90;;
18883;SDS011;9574;47.282;9.640;2024-01-27T13:43:53;2.10;;;1.80;;
18883;SDS011;9574;47.282;9.640;2024-01-27T13:46:20;2.17;;;1.70;;
18883;SDS011;9574;47.282;9.640;2024-01-27T13:48:49;2.70;;;2.00;;
18883;SDS011;9574;47.282;9.640;2024-01-27T13:51:16;2.57;;;1.90;;
18883;SDS011;9574;47.282;9.640;2024-01-27T13:53:43;3.67;;;1.93;;
18883;SDS011;9574;47.282;9.640;2024-01-27T13:56:10;2.53;;;1.47;;
18883;SDS011;9574;47.282;9.640;2024-01-27T13:58:37;2.20;;;1.77;;
18883;SDS011;9574;47.282;9.640;2024-01-27T14:01:04;2.83;;;1.60;;
18883;SDS011;9574;47.282;9.640;2024-01-27T14:03:31;2.07;;;1.83;;
18883;SDS011;9574;47.282;9.640;2024-01-27T14:05:59;1.92;;;1.73;;
18883;SDS011;9574;47.282;9.640;2024-01-27T14:08:26;3.43;;;1.63;;
18883;SDS011;9574;47.282;9.640;2024-01-27T14:10:53;2.40;;;1.80;;
18883;SDS011;9574;47.282;9.640;2024-01-27T14:13:20;2.40;;;2.05;;
18883;SDS011;9574;47.282;9.640;2024-01-27T14:15:47;5.85;;;2.25;;
18883;SDS011;9574;47.282;9.640;2024-01-27T14:18:14;3.22;;;2.42;;
18883;SDS011;9574;47.282;9.640;2024-01-27T14:20:45;8.25;;;3.60;;
18883;SDS011;9574;47.282;9.640;2024-01-27T14:23:14;3.45;;;2.53;;
18883;SDS011;9574;47.282;9.640;2024-01-27T14:25:42;2.60;;;1.90;;
18883;SDS011;9574;47.282;9.640;2024-01-27T14:28:09;2.07;;;1.63;;
18883;SDS011;9574;47.282;9.640;2024-01-27T14:30:36;1.50;;;1.40;;
18883;SDS011;9574;47.282;9.640;2024-01-27T14:33:04;3.97;;;1.80;;
18883;SDS011;9574;47.282;9.640;2024-01-27T14:35:31;2.47;;;2.00;;
18883;SDS011;9574;47.282;9.640;2024-01-27T14:37:59;4.43;;;3.67;;
18883;SDS011;9574;47.282;9.640;2024-01-27T14:40:27;5.33;;;3.97;;
18883;SDS011;9574;47.282;9.640;2024-01-27T14:42:57;5.17;;;4.27;;
18883;SDS011;9574;47.282;9.640;2024-01-27T14:45:24;7.43;;;6.13;;
18883;SDS011;9574;47.282;9.640;2024-01-27T14:47:51;13.63;;;9.13;;
18883;SDS011;9574;47.282;9.640;2024-01-27T14:50:19;6.63;;;4.60;;
18883;SDS011;9574;47.282;9.640;2024-01-27T14:52:46;4.20;;;3.30;;
18883;SDS011;9574;47.282;9.640;2024-01-27T14:55:13;9.60;;;7.50;;
18883;SDS011;9574;47.282;9.640;2024-01-27T14:57:42;6.83;;;4.53;;
18883;SDS011;9574;47.282;9.640;2024-01-27T15:00:10;4.70;;;3.93;;
18883;SDS011;9574;47.282;9.640;2024-01-27T15:02:39;6.23;;;3.60;;
18883;SDS011;9574;47.282;9.640;2024-01-27T15:05:10;8.03;;;5.43;;
18883;SDS011;9574;47.282;9.640;2024-01-27T15:07:37;12.03;;;7.40;;
18883;SDS011;9574;47.282;9.640;2024-01-27T15:10:05;14.57;;;10.33;;
18883;SDS011;9574;47.282;9.640;2024-01-27T15:12:32;14.03;;;8.50;;
18883;SDS011;9574;47.282;9.640;2024-01-27T15:15:00;14.90;;;9.27;;
18883;SDS011;9574;47.282;9.640;2024-01-27T15:17:27;10.17;;;7.40;;
18883;SDS011;9574;47.282;9.640;2024-01-27T15:19:55;9.00;;;5.27;;
18883;SDS011;9574;47.282;9.640;2024-01-27T15:22:22;5.37;;;4.07;;
18883;SDS011;9574;47.282;9.640;2024-01-27T15:24:49;6.50;;;4.30;;
18883;SDS011;9574;47.282;9.640;2024-01-27T15:27:17;5.27;;;4.70;;
18883;SDS011;9574;47.282;9.640;2024-01-27T15:29:44;7.33;;;5.50;;
18883;SDS011;9574;47.282;9.640;2024-01-27T15:32:13;4.63;;;3.53;;
18883;SDS011;9574;47.282;9.640;2024-01-27T15:34:42;5.80;;;3.73;;
18883;SDS011;9574;47.282;9.640;2024-01-27T15:37:10;7.77;;;4.50;;
18883;SDS011;9574;47.282;9.640;2024-01-27T15:39:37;5.83;;;3.40;;
18883;SDS011;9574;47.282;9.640;2024-01-27T15:42:08;5.00;;;3.40;;
18883;SDS011;9574;47.282;9.640;2024-01-27T15:44:35;3.23;;;2.60;;
18883;SDS011;9574;47.282;9.640;2024-01-27T15:47:02;4.37;;;3.17;;
18883;SDS011;9574;47.282;9.640;2024-01-27T15:49:30;2.87;;;1.83;;
18883;SDS011;9574;47.282;9.640;2024-01-27T15:51:57;3.67;;;2.00;;
18883;SDS011;9574;47.282;9.640;2024-01-27T15:54:24;3.77;;;2.10;;
18883;SDS011;9574;47.282;9.640;2024-01-27T15:56:51;4.07;;;2.57;;
18883;SDS011;9574;47.282;9.640;2024-01-27T15:59:19;3.10;;;1.73;;
18883;SDS011;9574;47.282;9.640;2024-01-27T16:01:46;2.30;;;2.07;;
18883;SDS011;9574;47.282;9.640;2024-01-27T16:04:13;2.00;;;1.50;;
18883;SDS011;9574;47.282;9.640;2024-01-27T16:06:41;1.97;;;1.87;;
18883;SDS011;9574;47.282;9.640;2024-01-27T16:09:08;1.70;;;1.60;;
18883;SDS011;9574;47.282;9.640;2024-01-27T16:11:35;2.40;;;1.80;;
18883;SDS011;9574;47.282;9.640;2024-01-27T16:14:03;2.27;;;1.50;;
18883;SDS011;9574;47.282;9.640;2024-01-27T16:16:30;2.73;;;1.67;;
18883;SDS011;9574;47.282;9.640;2024-01-27T16:18:57;1.90;;;1.67;;
18883;SDS011;9574;47.282;9.640;2024-01-27T16:21:25;4.00;;;2.60;;
18883;SDS011;9574;47.282;9.640;2024-01-27T16:23:53;5.33;;;4.03;;
18883;SDS011;9574;47.282;9.640;2024-01-27T16:26:21;7.07;;;5.20;;
18883;SDS011;9574;47.282;9.640;2024-01-27T16:28:49;13.07;;;7.60;;
18883;SDS011;9574;47.282;9.640;2024-01-27T16:31:16;8.80;;;5.00;;
18883;SDS011;9574;47.282;9.640;2024-01-27T16:33:43;10.47;;;4.20;;
18883;SDS011;9574;47.282;9.640;2024-01-27T16:36:10;8.90;;;4.90;;
18883;SDS011;9574;47.282;9.640;2024-01-27T16:38:38;11.23;;;6.87;;
18883;SDS011;9574;47.282;9.640;2024-01-27T16:41:06;7.10;;;5.30;;
18883;SDS011;9574;47.282;9.640;2024-01-27T16:43:34;5.80;;;3.40;;
18883;SDS011;9574;47.282;9.640;2024-01-27T16:46:01;6.23;;;3.93;;
18883;SDS011;9574;47.282;9.640;2024-01-27T16:48:28;5.13;;;4.23;;
18883;SDS011;9574;47.282;9.640;2024-01-27T16:50:56;4.03;;;3.50;;
18883;SDS011;9574;47.282;9.640;2024-01-27T16:53:23;4.90;;;2.70;;
18883;SDS011;9574;47.282;9.640;2024-01-27T16:55:50;4.63;;;4.17;;
18883;SDS011;9574;47.282;9.640;2024-01-27T16:58:18;3.63;;;2.90;;
18883;SDS011;9574;47.282;9.640;2024-01-27T17:00:45;3.00;;;1.97;;
18883;SDS011;9574;47.282;9.640;2024-01-27T17:03:12;3.57;;;1.97;;
18883;SDS011;9574;47.282;9.640;2024-01-27T17:05:40;3.13;;;2.70;;
18883;SDS011;9574;47.282;9.640;2024-01-27T17:08:07;5.13;;;2.33;;
18883;SDS011;9574;47.282;9.640;2024-01-27T17:10:34;35.73;;;13.37;;
18883;SDS011;9574;47.282;9.640;2024-01-27T17:13:01;12.73;;;6.00;;
18883;SDS011;9574;47.282;9.640;2024-01-27T17:15:30;11.63;;;5.50;;
18883;SDS011;9574;47.282;9.640;2024-01-27T17:17:58;9.10;;;4.90;;
18883;SDS011;9574;47.282;9.640;2024-01-27T17:20:25;8.83;;;4.60;;
18883;SDS011;9574;47.282;9.640;2024-01-27T17:22:52;7.03;;;4.90;;
18883;SDS011;9574;47.282;9.640;2024-01-27T17:25:19;5.80;;;4.20;;
18883;SDS011;9574;47.282;9.640;2024-01-27T17:27:46;7.13;;;4.07;;
18883;SDS011;9574;47.282;9.640;2024-01-27T17:30:13;13.03;;;6.67;;
18883;SDS011;9574;47.282;9.640;2024-01-27T17:32:42;6.93;;;3.80;;
18883;SDS011;9574;47.282;9.640;2024-01-27T17:35:09;3.60;;;2.17;;
18883;SDS011;9574;47.282;9.640;2024-01-27T17:37:36;2.57;;;1.87;;
18883;SDS011;9574;47.282;9.640;2024-01-27T17:40:04;7.60;;;4.33;;
18883;SDS011;9574;47.282;9.640;2024-01-27T17:42:32;3.50;;;2.23;;
18883;SDS011;9574;47.282;9.640;2024-01-27T17:44:59;6.00;;;3.17;;
18883;SDS011;9574;47.282;9.640;2024-01-27T17:47:27;3.80;;;2.40;;
18883;SDS011;9574;47.282;9.640;2024-01-27T17:49:56;4.90;;;3.00;;
18883;SDS011;9574;47.282;9.640;2024-01-27T17:52:23;5.53;;;2.97;;
18883;SDS011;9574;47.282;9.640;2024-01-27T17:54:50;6.97;;;3.13;;
18883;SDS011;9574;47.282;9.640;2024-01-27T17:57:17;4.73;;;2.77;;
18883;SDS011;9574;47.282;9.640;2024-01-27T17:59:44;3.40;;;2.80;;
18883;SDS011;9574;47.282;9.640;2024-01-27T18:02:11;4.30;;;2.87;;
18883;SDS011;9574;47.282;9.640;2024-01-27T18:04:38;3.17;;;2.57;;
18883;SDS011;9574;47.282;9.640;2024-01-27T18:07:07;3.93;;;2.63;;
18883;SDS011;9574;47.282;9.640;2024-01-27T18:09:34;4.40;;;2.50;;
18883;SDS011;9574;47.282;9.640;2024-01-27T18:12:01;3.90;;;2.47;;
18883;SDS011;9574;47.282;9.640;2024-01-27T18:14:28;3.53;;;2.07;;
18883;SDS011;9574;47.282;9.640;2024-01-27T18:16:55;3.57;;;2.70;;
18883;SDS011;9574;47.282;9.640;2024-01-27T18:19:22;3.67;;;2.50;;
18883;SDS011;9574;47.282;9.640;2024-01-27T18:21:50;5.23;;;2.80;;
18883;SDS011;9574;47.282;9.640;2024-01-27T18:24:18;5.27;;;3.13;;
18883;SDS011;9574;47.282;9.640;2024-01-27T18:26:45;4.90;;;2.40;;
18883;SDS011;9574;47.282;9.640;2024-01-27T18:29:12;3.07;;;2.77;;
18883;SDS011;9574;47.282;9.640;2024-01-27T18:31:39;3.23;;;2.50;;
18883;SDS011;9574;47.282;9.640;2024-01-27T18:34:07;4.07;;;2.60;;
18883;SDS011;9574;47.282;9.640;2024-01-27T18:36:34;6.03;;;2.20;;
18883;SDS011;9574;47.282;9.640;2024-01-27T18:39:01;2.43;;;2.00;;
18883;SDS011;9574;47.282;9.640;2024-01-27T18:41:30;2.90;;;2.00;;
18883;SDS011;9574;47.282;9.640;2024-01-27T18:43:58;3.53;;;2.20;;
18883;SDS011;9574;47.282;9.640;2024-01-27T18:46:25;2.57;;;1.87;;
18883;SDS011;9574;47.282;9.640;2024-01-27T18:48:52;3.73;;;2.03;;
18883;SDS011;9574;47.282;9.640;2024-01-27T18:51:19;3.73;;;3.07;;
18883;SDS011;9574;47.282;9.640;2024-01-27T18:53:46;4.80;;;3.27;;
18883;SDS011;9574;47.282;9.640;2024-01-27T18:56:14;3.03;;;2.00;;
18883;SDS011;9574;47.282;9.640;2024-01-27T18:58:43;2.87;;;2.00;;
18883;SDS011;9574;47.282;9.640;2024-01-27T19:01:10;4.30;;;2.00;;
18883;SDS011;9574;47.282;9.640;2024-01-27T19:03:37;3.10;;;2.30;;
18883;SDS011;9574;47.282;9.640;2024-01-27T19:06:05;2.43;;;1.97;;
18883;SDS011;9574;47.282;9.640;2024-01-27T19:08:32;3.37;;;2.03;;
18883;SDS011;9574;47.282;9.640;2024-01-27T19:10:59;1.97;;;1.77;;
18883;SDS011;9574;47.282;9.640;2024-01-27T19:13:26;3.23;;;2.03;;
18883;SDS011;9574;47.282;9.640;2024-01-27T19:15:54;3.90;;;2.10;;
18883;SDS011;9574;47.282;9.640;2024-01-27T19:18:21;3.43;;;2.00;;
18883;SDS011;9574;47.282;9.640;2024-01-27T19:20:49;3.30;;;2.13;;
18883;SDS011;9574;47.282;9.640;2024-01-27T19:23:16;2.37;;;1.80;;
18883;SDS011;9574;47.282;9.640;2024-01-27T19:25:43;4.33;;;2.20;;
18883;SDS011;9574;47.282;9.640;2024-01-27T19:28:10;3.23;;;2.00;;
18883;SDS011;9574;47.282;9.640;2024-01-27T19:30:39;2.50;;;2.00;;
18883;SDS011;9574;47.282;9.640;2024-01-27T19:33:08;2.80;;;2.20;;
18883;SDS011;9574;47.282;9.640;2024-01-27T19:35:35;2.73;;;1.80;;
18883;SDS011;9574;47.282;9.640;2024-01-27T19:38:02;2.33;;;1.87;;
18883;SDS011;9574;47.282;9.640;2024-01-27T19:40:30;2.80;;;2.13;;
18883;SDS011;9574;47.282;9.640;2024-01-27T19:42:57;4.90;;;1.90;;
18883;SDS011;9574;47.282;9.640;2024-01-27T19:45:24;2.60;;;2.10;;
18883;SDS011;9574;47.282;9.640;2024-01-27T19:47:51;3.17;;;2.00;;
18883;SDS011;9574;47.282;9.640;2024-01-27T19:50:20;2.40;;;2.20;;
18883;SDS011;9574;47.282;9.640;2024-01-27T19:52:47;4.73;;;2.57;;
18883;SDS011;9574;47.282;9.640;2024-01-27T19:55:13;4.27;;;2.63;;
18883;SDS011;9574;47.282;9.640;2024-01-27T19:57:40;3.10;;;2.10;;
18883;SDS011;9574;47.282;9.640;2024-01-27T20:00:08;4.47;;;2.70;;
18883;SDS011;9574;47.282;9.640;2024-01-27T20:02:35;4.00;;;2.20;;
18883;SDS011;9574;47.282;9.640;2024-01-27T20:05:03;4.67;;;2.47;;
18883;SDS011;9574;47.282;9.640;2024-01-27T20:07:32;2.40;;;2.20;;
18883;SDS011;9574;47.282;9.640;2024-01-27T20:09:59;4.57;;;2.60;;
18883;SDS011;9574;47.282;9.640;2024-01-27T20:12:26;2.77;;;2.47;;
18883;SDS011;9574;47.282;9.640;2024-01-27T20:14:53;2.77;;;2.10;;
18883;SDS011;9574;47.282;9.640;2024-01-27T20:17:20;3.83;;;2.33;;
18883;SDS011;9574;47.282;9.640;2024-01-27T20:19:47;3.03;;;1.70;;
18883;SDS011;9574;47.282;9.640;2024-01-27T20:22:18;2.73;;;1.97;;
18883;SDS011;9574;47.282;9.640;2024-01-27T20:24:47;2.40;;;2.00;;
18883;SDS011;9574;47.282;9.640;2024-01-27T20:27:15;2.77;;;2.30;;
18883;SDS011;9574;47.282;9.640;2024-01-27T20:29:42;3.13;;;2.80;;
18883;SDS011;9574;47.282;9.640;2024-01-27T20:32:09;2.43;;;2.23;;
18883;SDS011;9574;47.282;9.640;2024-01-27T20:34:36;3.27;;;2.00;;
18883;SDS011;9574;47.282;9.640;2024-01-27T20:37:03;2.53;;;1.80;;
18883;SDS011;9574;47.282;9.640;2024-01-27T20:39:31;6.07;;;2.63;;
18883;SDS011;9574;47.282;9.640;2024-01-27T20:41:59;3.83;;;2.10;;
18883;SDS011;9574;47.282;9.640;2024-01-27T20:44:26;3.80;;;1.83;;
18883;SDS011;9574;47.282;9.640;2024-01-27T20:46:53;2.93;;;2.30;;
18883;SDS011;9574;47.282;9.640;2024-01-27T20:49:21;2.50;;;1.73;;
18883;SDS011;9574;47.282;9.640;2024-01-27T20:51:48;2.43;;;2.20;;
18883;SDS011;9574;47.282;9.640;2024-01-27T20:54:17;5.67;;;2.77;;
18883;SDS011;9574;47.282;9.640;2024-01-27T20:56:44;4.63;;;2.57;;
18883;SDS011;9574;47.282;9.640;2024-01-27T20:59:12;3.57;;;2.10;;
18883;SDS011;9574;47.282;9.640;2024-01-27T21:01:39;3.80;;;3.00;;
18883;SDS011;9574;47.282;9.640;2024-01-27T21:04:27;4.03;;;2.00;;
18883;SDS011;9574;47.282;9.640;2024-01-27T21:06:54;3.37;;;1.70;;
18883;SDS011;9574;47.282;9.640;2024-01-27T21:09:21;2.73;;;1.77;;
18883;SDS011;9574;47.282;9.640;2024-01-27T21:11:48;2.30;;;1.63;;
18883;SDS011;9574;47.282;9.640;2024-01-27T21:14:17;3.27;;;1.67;;
18883;SDS011;9574;47.282;9.640;2024-01-27T21:16:44;1.63;;;1.40;;
18883;SDS011;9574;47.282;9.640;2024-01-27T21:19:12;3.90;;;1.83;;
18883;SDS011;9574;47.282;9.640;2024-01-27T21:21:39;2.00;;;1.47;;
18883;SDS011;9574;47.282;9.640;2024-01-27T21:24:06;2.27;;;1.87;;
18883;SDS011;9574;47.282;9.640;2024-01-27T21:26:38;2.97;;;1.63;;
18883;SDS011;9574;47.282;9.640;2024-01-27T21:29:05;2.43;;;1.70;;
18883;SDS011;9574;47.282;9.640;2024-01-27T21:31:34;1.70;;;1.43;;
18883;SDS011;9574;47.282;9.640;2024-01-27T21:34:01;3.17;;;1.63;;
18883;SDS011;9574;47.282;9.640;2024-01-27T21:36:28;11.97;;;5.63;;
18883;SDS011;9574;47.282;9.640;2024-01-27T21:38:56;9.83;;;4.23;;
18883;SDS011;9574;47.282;9.640;2024-01-27T21:41:24;6.47;;;3.00;;
18883;SDS011;9574;47.282;9.640;2024-01-27T21:43:51;3.17;;;2.27;;
18883;SDS011;9574;47.282;9.640;2024-01-27T21:46:20;3.43;;;2.23;;
18883;SDS011;9574;47.282;9.640;2024-01-27T21:48:49;2.40;;;1.80;;
18883;SDS011;9574;47.282;9.640;2024-01-27T21:51:16;2.03;;;1.60;;
18883;SDS011;9574;47.282;9.640;2024-01-27T21:53:43;1.40;;;1.30;;
18883;SDS011;9574;47.282;9.640;2024-01-27T21:56:10;1.60;;;1.50;;
18883;SDS011;9574;47.282;9.640;2024-01-27T21:58:37;1.40;;;1.30;;
18883;SDS011;9574;47.282;9.640;2024-01-27T22:01:04;3.17;;;1.63;;
18883;SDS011;9574;47.282;9.640;2024-01-27T22:03:31;2.47;;;1.73;;
18883;SDS011;9574;47.282;9.640;2024-01-27T22:06:04;1.83;;;1.50;;
18883;SDS011;9574;47.282;9.640;2024-01-27T22:08:32;3.90;;;1.80;;
18883;SDS011;9574;47.282;9.640;2024-01-27T22:11:00;2.07;;;1.43;;
18883;SDS011;9574;47.282;9.640;2024-01-27T22:13:27;2.03;;;1.70;;
18883;SDS011;9574;47.282;9.640;2024-01-27T22:15:54;2.90;;;1.57;;
18883;SDS011;9574;47.282;9.640;2024-01-27T22:18:21;2.20;;;1.50;;
18883;SDS011;9574;47.282;9.640;2024-01-27T22:20:48;3.00;;;2.13;;
18883;SDS011;9574;47.282;9.640;2024-01-27T22:23:19;1.60;;;1.30;;
18883;SDS011;9574;47.282;9.640;2024-01-27T22:25:46;2.47;;;1.47;;
18883;SDS011;9574;47.282;9.640;2024-01-27T22:28:13;2.70;;;1.80;;
18883;SDS011;9574;47.282;9.640;2024-01-27T22:30:41;2.03;;;1.53;;
18883;SDS011;9574;47.282;9.640;2024-01-27T22:33:08;2.43;;;1.40;;
18883;SDS011;9574;47.282;9.640;2024-01-27T22:35:36;2.37;;;1.30;;
18883;SDS011;9574;47.282;9.640;2024-01-27T22:38:05;1.73;;;1.53;;
18883;SDS011;9574;47.282;9.640;2024-01-27T22:40:33;1.63;;;1.33;;
18883;SDS011;9574;47.282;9.640;2024-01-27T22:43:00;4.23;;;1.40;;
18883;SDS011;9574;47.282;9.640;2024-01-27T22:45:28;2.17;;;1.50;;
18883;SDS011;9574;47.282;9.640;2024-01-27T22:47:55;1.40;;;1.30;;
18883;SDS011;9574;47.282;9.640;2024-01-27T22:50:22;1.40;;;1.30;;
18883;SDS011;9574;47.282;9.640;2024-01-27T22:52:49;2.07;;;1.80;;
18883;SDS011;9574;47.282;9.640;2024-01-27T22:55:16;1.40;;;1.30;;
18883;SDS011;9574;47.282;9.640;2024-01-27T22:57:47;2.73;;;1.93;;
18883;SDS011;9574;47.282;9.640;2024-01-27T23:00:14;2.00;;;1.47;;
18883;SDS011;9574;47.282;9.640;2024-01-27T23:02:49;2.30;;;1.80;;
18883;SDS011;9574;47.282;9.640;2024-01-27T23:05:16;3.87;;;1.93;;
18883;SDS011;9574;47.282;9.640;2024-01-27T23:07:43;3.43;;;2.03;;
18883;SDS011;9574;47.282;9.640;2024-01-27T23:10:10;4.53;;;2.40;;
18883;SDS011;9574;47.282;9.640;2024-01-27T23:12:37;3.23;;;2.20;;
18883;SDS011;9574;47.282;9.640;2024-01-27T23:15:06;2.60;;;1.60;;
18883;SDS011;9574;47.282;9.640;2024-01-27T23:17:35;3.03;;;1.60;;
18883;SDS011;9574;47.282;9.640;2024-01-27T23:20:02;1.37;;;1.07;;
18883;SDS011;9574;47.282;9.640;2024-01-27T23:22:29;3.90;;;1.30;;
18883;SDS011;9574;47.282;9.640;2024-01-27T23:24:56;1.27;;;1.17;;
18883;SDS011;9574;47.282;9.640;2024-01-27T23:27:23;1.27;;;1.10;;
18883;SDS011;9574;47.282;9.640;2024-01-27T23:29:50;2.73;;;1.10;;
18883;SDS011;9574;47.282;9.640;2024-01-27T23:32:19;1.27;;;1.13;;
18883;SDS011;9574;47.282;9.640;2024-01-27T23:34:47;3.30;;;1.60;;
18883;SDS011;9574;47.282;9.640;2024-01-27T23:37:14;3.73;;;1.40;;
18883;SDS011;9574;47.282;9.640;2024-01-27T23:39:40;1.23;;;1.10;;
18883;SDS011;9574;47.282;9.640;2024-01-27T23:42:09;3.47;;;1.23;;
18883;SDS011;9574;47.282;9.640;2024-01-27T23:44:36;3.27;;;1.03;;
18883;SDS011;9574;47.282;9.640;2024-01-27T23:47:03;2.03;;;1.43;;
18883;SDS011;9574;47.282;9.640;2024-01-27T23:49:31;0.97;;;0.97;;
18883;SDS011;9574;47.282;9.640;2024-01-27T23:51:58;1.60;;;1.10;;
18883;SDS011;9574;47.282;9.640;2024-01-27T23:54:26;1.80;;;1.13;;
18883;SDS011;9574;47.282;9.640;2024-01-27T23:56:54;1.40;;;1.30;;
18883;SDS011;9574;47.282;9.640;2024-01-27T23:59:21;2.23;;;0.97;;
